Aviation Digital Data Service (ADDS)

Output produced by METARs form (1011 UTC 29 May 2015)
found at http://aviationweather.gov/adds/metars/
 
KPQI 290531Z 2906/3006 35005KT P6SM SCT050 
     FM291500 VRB03KT P6SM FEW040 AMD LTD TO CLD VIS AND WIND